sensor_id;sensor_type;location;lat;lon;timestamp;temperature;humidity
8152;DHT22;4117;53.622;9.958;2023-12-20T00:01:02;5.50;99.90
8152;DHT22;4117;53.622;9.958;2023-12-20T00:03:29;5.50;99.90
8152;DHT22;4117;53.622;9.958;2023-12-20T00:05:56;5.40;99.90
8152;DHT22;4117;53.622;9.958;2023-12-20T00:08:23;5.40;99.90
8152;DHT22;4117;53.622;9.958;2023-12-20T00:10:51;5.40;99.90
8152;DHT22;4117;53.622;9.958;2023-12-20T00:13:18;5.30;99.90
8152;DHT22;4117;53.622;9.958;2023-12-20T00:15:45;5.30;99.90
8152;DHT22;4117;53.622;9.958;2023-12-20T00:18:12;5.30;99.90
8152;DHT22;4117;53.622;9.958;2023-12-20T00:20:39;5.20;99.90
8152;DHT22;4117;53.622;9.958;2023-12-20T00:23:06;5.30;99.90
8152;DHT22;4117;53.622;9.958;2023-12-20T00:25:33;5.20;99.90
8152;DHT22;4117;53.622;9.958;2023-12-20T00:28:02;5.20;99.90
8152;DHT22;4117;53.622;9.958;2023-12-20T00:30:29;5.20;99.90
8152;DHT22;4117;53.622;9.958;2023-12-20T00:32:56;5.20;99.90
8152;DHT22;4117;53.622;9.958;2023-12-20T00:35:23;5.20;99.90
8152;DHT22;4117;53.622;9.958;2023-12-20T00:37:50;5.20;99.90
8152;DHT22;4117;53.622;9.958;2023-12-20T00:40:17;5.20;99.90
8152;DHT22;4117;53.622;9.958;2023-12-20T00:42:44;5.20;99.90
8152;DHT22;4117;53.622;9.958;2023-12-20T00:45:14;5.10;99.90
8152;DHT22;4117;53.622;9.958;2023-12-20T00:47:41;5.20;99.90
8152;DHT22;4117;53.622;9.958;2023-12-20T00:50:08;5.20;99.90
8152;DHT22;4117;53.622;9.958;2023-12-20T00:52:35;5.20;99.90
8152;DHT22;4117;53.622;9.958;2023-12-20T00:55:03;5.20;99.90
8152;DHT22;4117;53.622;9.958;2023-12-20T00:57:30;5.20;99.90
8152;DHT22;4117;53.622;9.958;2023-12-20T00:59:57;5.30;99.90
8152;DHT22;4117;53.622;9.958;2023-12-20T01:02:26;5.30;99.90
8152;DHT22;4117;53.622;9.958;2023-12-20T01:04:53;5.20;99.90
8152;DHT22;4117;53.622;9.958;2023-12-20T01:07:20;5.20;99.90
8152;DHT22;4117;53.622;9.958;2023-12-20T01:09:47;5.20;99.90
8152;DHT22;4117;53.622;9.958;2023-12-20T01:12:15;5.20;99.90
8152;DHT22;4117;53.622;9.958;2023-12-20T01:14:42;5.20;99.90
8152;DHT22;4117;53.622;9.958;2023-12-20T01:17:08;5.10;99.90
8152;DHT22;4117;53.622;9.958;2023-12-20T01:19:37;5.20;99.90
8152;DHT22;4117;53.622;9.958;2023-12-20T01:22:04;5.10;99.90
8152;DHT22;4117;53.622;9.958;2023-12-20T01:24:31;5.20;99.90
8152;DHT22;4117;53.622;9.958;2023-12-20T01:26:58;5.10;98.60
8152;DHT22;4117;53.622;9.958;2023-12-20T01:29:25;5.10;98.60
8152;DHT22;4117;53.622;9.958;2023-12-20T01:31:52;5.10;98.60
8152;DHT22;4117;53.622;9.958;2023-12-20T01:34:19;5.10;98.60
8152;DHT22;4117;53.622;9.958;2023-12-20T01:36:47;5.00;98.20
8152;DHT22;4117;53.622;9.958;2023-12-20T01:39:16;5.00;96.50
8152;DHT22;4117;53.622;9.958;2023-12-20T01:41:44;5.00;95.90
8152;DHT22;4117;53.622;9.958;2023-12-20T01:44:11;5.00;96.80
8152;DHT22;4117;53.622;9.958;2023-12-20T01:46:38;5.00;96.40
8152;DHT22;4117;53.622;9.958;2023-12-20T01:49:05;5.00;96.00
8152;DHT22;4117;53.622;9.958;2023-12-20T01:51:33;5.00;94.80
8152;DHT22;4117;53.622;9.958;2023-12-20T01:54:01;5.00;98.10
8152;DHT22;4117;53.622;9.958;2023-12-20T01:56:29;5.00;95.40
8152;DHT22;4117;53.622;9.958;2023-12-20T01:58:58;5.00;93.90
8152;DHT22;4117;53.622;9.958;2023-12-20T02:01:25;5.00;93.70
8152;DHT22;4117;53.622;9.958;2023-12-20T02:03:54;5.00;95.90
8152;DHT22;4117;53.622;9.958;2023-12-20T02:06:22;4.90;95.10
8152;DHT22;4117;53.622;9.958;2023-12-20T02:08:50;5.00;97.20
8152;DHT22;4117;53.622;9.958;2023-12-20T02:11:18;4.90;95.90
8152;DHT22;4117;53.622;9.958;2023-12-20T02:13:45;4.90;96.30
8152;DHT22;4117;53.622;9.958;2023-12-20T02:16:12;4.90;97.20
8152;DHT22;4117;53.622;9.958;2023-12-20T02:18:39;4.90;97.70
8152;DHT22;4117;53.622;9.958;2023-12-20T02:21:06;4.90;98.00
8152;DHT22;4117;53.622;9.958;2023-12-20T02:23:34;4.90;98.30
8152;DHT22;4117;53.622;9.958;2023-12-20T02:26:02;4.90;98.50
8152;DHT22;4117;53.622;9.958;2023-12-20T02:28:30;4.90;98.10
8152;DHT22;4117;53.622;9.958;2023-12-20T02:30:57;4.90;98.40
8152;DHT22;4117;53.622;9.958;2023-12-20T02:33:24;4.90;96.50
8152;DHT22;4117;53.622;9.958;2023-12-20T02:35:51;5.00;98.50
8152;DHT22;4117;53.622;9.958;2023-12-20T02:38:18;5.00;95.90
8152;DHT22;4117;53.622;9.958;2023-12-20T02:40:46;5.00;96.10
8152;DHT22;4117;53.622;9.958;2023-12-20T02:43:13;5.00;96.50
8152;DHT22;4117;53.622;9.958;2023-12-20T02:45:40;5.00;97.30
8152;DHT22;4117;53.622;9.958;2023-12-20T02:48:07;5.00;95.40
8152;DHT22;4117;53.622;9.958;2023-12-20T02:50:34;5.00;95.30
8152;DHT22;4117;53.622;9.958;2023-12-20T02:53:01;5.00;95.90
8152;DHT22;4117;53.622;9.958;2023-12-20T02:55:28;5.00;96.40
8152;DHT22;4117;53.622;9.958;2023-12-20T02:57:56;5.00;95.50
8152;DHT22;4117;53.622;9.958;2023-12-20T03:00:23;5.00;95.80
8152;DHT22;4117;53.622;9.958;2023-12-20T03:02:50;5.00;95.40
8152;DHT22;4117;53.622;9.958;2023-12-20T03:05:17;5.00;94.00
8152;DHT22;4117;53.622;9.958;2023-12-20T03:07:46;5.00;95.90
8152;DHT22;4117;53.622;9.958;2023-12-20T03:10:13;5.10;96.00
8152;DHT22;4117;53.622;9.958;2023-12-20T03:12:40;5.00;95.90
8152;DHT22;4117;53.622;9.958;2023-12-20T03:15:09;5.00;95.70
8152;DHT22;4117;53.622;9.958;2023-12-20T03:17:36;5.10;93.50
8152;DHT22;4117;53.622;9.958;2023-12-20T03:20:03;5.00;94.70
8152;DHT22;4117;53.622;9.958;2023-12-20T03:22:31;5.00;93.20
8152;DHT22;4117;53.622;9.958;2023-12-20T03:24:57;5.00;94.60
8152;DHT22;4117;53.622;9.958;2023-12-20T03:27:24;5.00;93.50
8152;DHT22;4117;53.622;9.958;2023-12-20T03:29:51;5.00;93.10
8152;DHT22;4117;53.622;9.958;2023-12-20T03:32:19;5.00;93.20
8152;DHT22;4117;53.622;9.958;2023-12-20T03:34:46;5.00;94.20
8152;DHT22;4117;53.622;9.958;2023-12-20T03:37:13;5.00;93.10
8152;DHT22;4117;53.622;9.958;2023-12-20T03:39:40;5.00;95.00
8152;DHT22;4117;53.622;9.958;2023-12-20T03:42:07;5.00;94.50
8152;DHT22;4117;53.622;9.958;2023-12-20T03:44:34;5.00;93.20
8152;DHT22;4117;53.622;9.958;2023-12-20T03:47:01;5.00;93.20
8152;DHT22;4117;53.622;9.958;2023-12-20T03:49:30;5.00;93.10
8152;DHT22;4117;53.622;9.958;2023-12-20T03:51:56;5.00;93.10
8152;DHT22;4117;53.622;9.958;2023-12-20T03:54:24;5.00;92.20
8152;DHT22;4117;53.622;9.958;2023-12-20T03:56:51;5.00;90.70
8152;DHT22;4117;53.622;9.958;2023-12-20T03:59:18;5.00;92.20
8152;DHT22;4117;53.622;9.958;2023-12-20T04:01:45;5.00;86.60
8152;DHT22;4117;53.622;9.958;2023-12-20T04:04:13;5.00;87.50
8152;DHT22;4117;53.622;9.958;2023-12-20T04:06:41;5.00;87.90
8152;DHT22;4117;53.622;9.958;2023-12-20T04:09:08;5.00;86.10
8152;DHT22;4117;53.622;9.958;2023-12-20T04:11:36;5.00;86.40
8152;DHT22;4117;53.622;9.958;2023-12-20T04:14:06;5.00;90.10
8152;DHT22;4117;53.622;9.958;2023-12-20T04:16:34;5.00;90.30
8152;DHT22;4117;53.622;9.958;2023-12-20T04:19:01;5.00;90.40
8152;DHT22;4117;53.622;9.958;2023-12-20T04:21:28;5.00;90.20
8152;DHT22;4117;53.622;9.958;2023-12-20T04:23:59;5.00;91.90
8152;DHT22;4117;53.622;9.958;2023-12-20T04:26:25;5.00;92.90
8152;DHT22;4117;53.622;9.958;2023-12-20T04:28:52;5.00;93.10
8152;DHT22;4117;53.622;9.958;2023-12-20T04:31:19;5.00;93.10
8152;DHT22;4117;53.622;9.958;2023-12-20T04:33:46;5.00;92.70
8152;DHT22;4117;53.622;9.958;2023-12-20T04:36:13;5.00;93.10
8152;DHT22;4117;53.622;9.958;2023-12-20T04:38:40;5.00;93.10
8152;DHT22;4117;53.622;9.958;2023-12-20T04:41:08;5.00;93.10
8152;DHT22;4117;53.622;9.958;2023-12-20T04:43:35;5.00;91.20
8152;DHT22;4117;53.622;9.958;2023-12-20T04:46:03;5.00;93.10
8152;DHT22;4117;53.622;9.958;2023-12-20T04:48:30;5.00;91.40
8152;DHT22;4117;53.622;9.958;2023-12-20T04:50:57;5.00;92.70
8152;DHT22;4117;53.622;9.958;2023-12-20T04:53:24;5.00;93.00
8152;DHT22;4117;53.622;9.958;2023-12-20T04:55:51;5.00;91.60
8152;DHT22;4117;53.622;9.958;2023-12-20T04:58:19;5.00;92.30
8152;DHT22;4117;53.622;9.958;2023-12-20T05:00:46;5.00;92.20
8152;DHT22;4117;53.622;9.958;2023-12-20T05:03:13;5.00;91.40
8152;DHT22;4117;53.622;9.958;2023-12-20T05:05:40;5.00;92.50
8152;DHT22;4117;53.622;9.958;2023-12-20T05:08:07;5.10;93.00
8152;DHT22;4117;53.622;9.958;2023-12-20T05:10:34;5.10;90.00
8152;DHT22;4117;53.622;9.958;2023-12-20T05:13:02;5.10;90.30
8152;DHT22;4117;53.622;9.958;2023-12-20T05:15:30;5.10;90.30
8152;DHT22;4117;53.622;9.958;2023-12-20T05:17:57;5.10;90.40
8152;DHT22;4117;53.622;9.958;2023-12-20T05:20:24;5.10;90.40
8152;DHT22;4117;53.622;9.958;2023-12-20T05:22:51;5.10;89.90
8152;DHT22;4117;53.622;9.958;2023-12-20T05:25:18;5.10;85.40
8152;DHT22;4117;53.622;9.958;2023-12-20T05:27:45;5.10;87.80
8152;DHT22;4117;53.622;9.958;2023-12-20T05:30:12;5.20;85.10
8152;DHT22;4117;53.622;9.958;2023-12-20T05:32:40;5.20;85.50
8152;DHT22;4117;53.622;9.958;2023-12-20T05:35:07;5.20;84.90
8152;DHT22;4117;53.622;9.958;2023-12-20T05:37:34;5.20;84.90
8152;DHT22;4117;53.622;9.958;2023-12-20T05:40:01;5.20;85.80
8152;DHT22;4117;53.622;9.958;2023-12-20T05:42:29;5.20;84.90
8152;DHT22;4117;53.622;9.958;2023-12-20T05:44:56;5.20;91.10
8152;DHT22;4117;53.622;9.958;2023-12-20T05:47:23;5.20;92.40
8152;DHT22;4117;53.622;9.958;2023-12-20T05:49:52;5.20;92.50
8152;DHT22;4117;53.622;9.958;2023-12-20T05:52:18;5.20;92.40
8152;DHT22;4117;53.622;9.958;2023-12-20T05:54:45;5.20;92.70
8152;DHT22;4117;53.622;9.958;2023-12-20T05:57:12;5.20;91.80
8152;DHT22;4117;53.622;9.958;2023-12-20T05:59:39;5.20;92.40
8152;DHT22;4117;53.622;9.958;2023-12-20T06:02:06;5.20;93.20
8152;DHT22;4117;53.622;9.958;2023-12-20T06:04:33;5.20;93.50
8152;DHT22;4117;53.622;9.958;2023-12-20T06:07:02;5.20;93.00
8152;DHT22;4117;53.622;9.958;2023-12-20T06:09:30;5.20;93.20
8152;DHT22;4117;53.622;9.958;2023-12-20T06:12:32;5.20;93.20
8152;DHT22;4117;53.622;9.958;2023-12-20T06:15:01;5.20;92.80
8152;DHT22;4117;53.622;9.958;2023-12-20T06:17:28;5.20;93.20
8152;DHT22;4117;53.622;9.958;2023-12-20T06:19:57;5.20;92.50
8152;DHT22;4117;53.622;9.958;2023-12-20T06:22:25;5.20;93.50
8152;DHT22;4117;53.622;9.958;2023-12-20T06:24:52;5.30;93.30
8152;DHT22;4117;53.622;9.958;2023-12-20T06:27:19;5.20;93.20
8152;DHT22;4117;53.622;9.958;2023-12-20T06:29:46;5.20;93.20
8152;DHT22;4117;53.622;9.958;2023-12-20T06:32:13;5.30;92.40
8152;DHT22;4117;53.622;9.958;2023-12-20T06:34:40;5.30;91.10
8152;DHT22;4117;53.622;9.958;2023-12-20T06:37:07;5.30;90.20
8152;DHT22;4117;53.622;9.958;2023-12-20T06:39:35;5.30;88.80
8152;DHT22;4117;53.622;9.958;2023-12-20T06:42:03;5.30;88.80
8152;DHT22;4117;53.622;9.958;2023-12-20T06:44:30;5.30;87.40
8152;DHT22;4117;53.622;9.958;2023-12-20T06:46:57;5.30;85.40
8152;DHT22;4117;53.622;9.958;2023-12-20T06:49:24;5.30;85.00
8152;DHT22;4117;53.622;9.958;2023-12-20T06:51:51;5.30;85.00
8152;DHT22;4117;53.622;9.958;2023-12-20T06:54:18;5.30;84.90
8152;DHT22;4117;53.622;9.958;2023-12-20T06:56:47;5.30;84.40
8152;DHT22;4117;53.622;9.958;2023-12-20T06:59:14;5.30;84.80
8152;DHT22;4117;53.622;9.958;2023-12-20T07:01:41;5.30;85.00
8152;DHT22;4117;53.622;9.958;2023-12-20T07:04:08;5.30;85.30
8152;DHT22;4117;53.622;9.958;2023-12-20T07:06:35;5.30;86.00
8152;DHT22;4117;53.622;9.958;2023-12-20T07:09:02;5.30;85.00
8152;DHT22;4117;53.622;9.958;2023-12-20T07:11:29;5.30;85.00
8152;DHT22;4117;53.622;9.958;2023-12-20T07:13:58;5.30;85.00
8152;DHT22;4117;53.622;9.958;2023-12-20T07:16:25;5.30;84.90
8152;DHT22;4117;53.622;9.958;2023-12-20T07:18:52;5.30;79.30
8152;DHT22;4117;53.622;9.958;2023-12-20T07:21:19;5.30;82.20
8152;DHT22;4117;53.622;9.958;2023-12-20T07:23:45;5.40;80.30
8152;DHT22;4117;53.622;9.958;2023-12-20T07:26:12;5.30;78.80
8152;DHT22;4117;53.622;9.958;2023-12-20T07:28:39;5.40;81.50
8152;DHT22;4117;53.622;9.958;2023-12-20T07:31:08;5.40;80.40
8152;DHT22;4117;53.622;9.958;2023-12-20T07:33:35;5.30;77.20
8152;DHT22;4117;53.622;9.958;2023-12-20T07:36:02;5.40;77.40
8152;DHT22;4117;53.622;9.958;2023-12-20T07:38:29;5.40;72.30
8152;DHT22;4117;53.622;9.958;2023-12-20T07:40:56;5.40;72.30
8152;DHT22;4117;53.622;9.958;2023-12-20T07:43:23;5.40;72.20
8152;DHT22;4117;53.622;9.958;2023-12-20T07:45:49;5.40;71.10
8152;DHT22;4117;53.622;9.958;2023-12-20T07:48:17;5.40;60.30
8152;DHT22;4117;53.622;9.958;2023-12-20T07:50:44;5.40;59.10
8152;DHT22;4117;53.622;9.958;2023-12-20T07:53:11;5.50;57.90
8152;DHT22;4117;53.622;9.958;2023-12-20T07:55:39;5.40;58.40
8152;DHT22;4117;53.622;9.958;2023-12-20T07:58:06;5.50;55.60
8152;DHT22;4117;53.622;9.958;2023-12-20T08:00:33;5.50;53.00
8152;DHT22;4117;53.622;9.958;2023-12-20T08:03:00;5.50;51.00
8152;DHT22;4117;53.622;9.958;2023-12-20T08:05:30;5.50;51.10
8152;DHT22;4117;53.622;9.958;2023-12-20T08:07:57;5.50;48.50
8152;DHT22;4117;53.622;9.958;2023-12-20T08:10:24;5.50;51.60
8152;DHT22;4117;53.622;9.958;2023-12-20T08:12:51;5.50;47.40
8152;DHT22;4117;53.622;9.958;2023-12-20T08:15:18;5.60;47.50
8152;DHT22;4117;53.622;9.958;2023-12-20T08:17:45;5.60;43.70
8152;DHT22;4117;53.622;9.958;2023-12-20T08:20:12;5.60;39.10
8152;DHT22;4117;53.622;9.958;2023-12-20T08:22:40;5.60;40.10
8152;DHT22;4117;53.622;9.958;2023-12-20T08:25:07;5.60;41.40
8152;DHT22;4117;53.622;9.958;2023-12-20T08:27:39;5.60;41.40
8152;DHT22;4117;53.622;9.958;2023-12-20T08:30:08;5.60;41.50
8152;DHT22;4117;53.622;9.958;2023-12-20T08:32:35;5.60;35.30
8152;DHT22;4117;53.622;9.958;2023-12-20T08:35:03;5.70;35.30
8152;DHT22;4117;53.622;9.958;2023-12-20T08:37:32;5.70;35.30
8152;DHT22;4117;53.622;9.958;2023-12-20T08:40:00;5.70;35.30
8152;DHT22;4117;53.622;9.958;2023-12-20T08:42:27;5.70;35.10
8152;DHT22;4117;53.622;9.958;2023-12-20T08:44:56;5.80;29.80
8152;DHT22;4117;53.622;9.958;2023-12-20T08:47:24;5.90;28.40
8152;DHT22;4117;53.622;9.958;2023-12-20T08:49:51;5.90;27.50
8152;DHT22;4117;53.622;9.958;2023-12-20T08:52:22;5.90;25.60
8152;DHT22;4117;53.622;9.958;2023-12-20T08:54:49;5.90;24.50
8152;DHT22;4117;53.622;9.958;2023-12-20T08:57:19;5.90;24.50
8152;DHT22;4117;53.622;9.958;2023-12-20T08:59:47;5.90;24.50
8152;DHT22;4117;53.622;9.958;2023-12-20T09:02:14;5.80;24.40
8152;DHT22;4117;53.622;9.958;2023-12-20T09:04:41;5.80;24.90
8152;DHT22;4117;53.622;9.958;2023-12-20T09:07:21;5.80;24.40
8152;DHT22;4117;53.622;9.958;2023-12-20T09:09:48;5.80;25.60
8152;DHT22;4117;53.622;9.958;2023-12-20T09:12:15;5.80;24.40
8152;DHT22;4117;53.622;9.958;2023-12-20T09:14:43;5.80;25.00
8152;DHT22;4117;53.622;9.958;2023-12-20T09:17:10;5.80;24.40
8152;DHT22;4117;53.622;9.958;2023-12-20T09:19:38;5.70;24.40
8152;DHT22;4117;53.622;9.958;2023-12-20T09:22:05;5.70;28.00
8152;DHT22;4117;53.622;9.958;2023-12-20T09:24:32;5.70;29.30
8152;DHT22;4117;53.622;9.958;2023-12-20T09:26:59;5.60;35.30
8152;DHT22;4117;53.622;9.958;2023-12-20T09:29:26;5.60;35.20
8152;DHT22;4117;53.622;9.958;2023-12-20T09:31:54;5.60;35.70
8152;DHT22;4117;53.622;9.958;2023-12-20T09:34:21;5.60;41.40
8152;DHT22;4117;53.622;9.958;2023-12-20T09:36:48;5.60;41.50
8152;DHT22;4117;53.622;9.958;2023-12-20T09:39:15;5.60;38.50
8152;DHT22;4117;53.622;9.958;2023-12-20T09:41:45;5.60;41.40
8152;DHT22;4117;53.622;9.958;2023-12-20T09:44:15;5.60;39.40
8152;DHT22;4117;53.622;9.958;2023-12-20T09:46:45;5.60;38.70
8152;DHT22;4117;53.622;9.958;2023-12-20T09:49:17;5.50;34.90
8152;DHT22;4117;53.622;9.958;2023-12-20T09:51:46;5.50;29.10
8152;DHT22;4117;53.622;9.958;2023-12-20T09:54:14;5.40;24.20
8152;DHT22;4117;53.622;9.958;2023-12-20T09:56:41;5.40;20.20
8152;DHT22;4117;53.622;9.958;2023-12-20T09:59:08;5.40;16.60
8152;DHT22;4117;53.622;9.958;2023-12-20T10:01:36;5.20;9.40
8152;DHT22;4117;53.622;9.958;2023-12-20T10:04:06;5.20;9.80
8152;DHT22;4117;53.622;9.958;2023-12-20T10:06:36;5.10;3.00
8152;DHT22;4117;53.622;9.958;2023-12-20T10:09:03;5.10;2.90
8152;DHT22;4117;53.622;9.958;2023-12-20T10:11:31;5.10;1.00
8152;DHT22;4117;53.622;9.958;2023-12-20T10:13:59;5.00;1.00
8152;DHT22;4117;53.622;9.958;2023-12-20T10:16:27;5.00;1.00
8152;DHT22;4117;53.622;9.958;2023-12-20T10:18:54;5.00;1.00
8152;DHT22;4117;53.622;9.958;2023-12-20T10:21:22;5.00;1.00
8152;DHT22;4117;53.622;9.958;2023-12-20T10:23:53;5.00;1.00
8152;DHT22;4117;53.622;9.958;2023-12-20T10:26:21;5.00;1.00
8152;DHT22;4117;53.622;9.958;2023-12-20T10:28:50;5.00;1.00
8152;DHT22;4117;53.622;9.958;2023-12-20T10:31:28;4.90;1.00
8152;DHT22;4117;53.622;9.958;2023-12-20T10:33:57;4.90;1.00
8152;DHT22;4117;53.622;9.958;2023-12-20T10:36:25;4.90;1.00
8152;DHT22;4117;53.622;9.958;2023-12-20T10:38:55;4.90;1.00
8152;DHT22;4117;53.622;9.958;2023-12-20T10:41:25;4.90;1.00
8152;DHT22;4117;53.622;9.958;2023-12-20T10:43:58;4.90;1.00
8152;DHT22;4117;53.622;9.958;2023-12-20T10:46:26;4.90;1.00
8152;DHT22;4117;53.622;9.958;2023-12-20T10:48:54;4.90;1.00
8152;DHT22;4117;53.622;9.958;2023-12-20T10:51:23;4.90;1.00
8152;DHT22;4117;53.622;9.958;2023-12-20T10:53:54;4.90;1.00
8152;DHT22;4117;53.622;9.958;2023-12-20T10:56:21;4.90;1.00
8152;DHT22;4117;53.622;9.958;2023-12-20T10:58:49;4.90;1.00
8152;DHT22;4117;53.622;9.958;2023-12-20T11:01:17;4.90;1.00
8152;DHT22;4117;53.622;9.958;2023-12-20T11:03:49;4.90;1.00
8152;DHT22;4117;53.622;9.958;2023-12-20T11:06:29;4.80;1.00
8152;DHT22;4117;53.622;9.958;2023-12-20T11:09:08;4.90;1.00
8152;DHT22;4117;53.622;9.958;2023-12-20T11:11:48;4.90;1.00
8152;DHT22;4117;53.622;9.958;2023-12-20T11:14:22;4.90;1.00
8152;DHT22;4117;53.622;9.958;2023-12-20T11:16:50;4.90;1.00
8152;DHT22;4117;53.622;9.958;2023-12-20T11:19:17;4.80;1.00
8152;DHT22;4117;53.622;9.958;2023-12-20T11:21:46;4.80;1.00
8152;DHT22;4117;53.622;9.958;2023-12-20T11:24:15;4.80;1.00
8152;DHT22;4117;53.622;9.958;2023-12-20T11:26:47;4.70;1.00
8152;DHT22;4117;53.622;9.958;2023-12-20T11:29:30;4.70;1.00
8152;DHT22;4117;53.622;9.958;2023-12-20T11:31:59;4.50;1.00
8152;DHT22;4117;53.622;9.958;2023-12-20T11:34:27;4.50;1.00
8152;DHT22;4117;53.622;9.958;2023-12-20T11:36:58;4.50;1.00
8152;DHT22;4117;53.622;9.958;2023-12-20T11:39:27;4.50;1.00
8152;DHT22;4117;53.622;9.958;2023-12-20T11:41:56;4.50;1.00
8152;DHT22;4117;53.622;9.958;2023-12-20T11:44:25;4.50;1.00
8152;DHT22;4117;53.622;9.958;2023-12-20T11:46:52;4.50;1.00
8152;DHT22;4117;53.622;9.958;2023-12-20T11:49:23;4.50;1.00
8152;DHT22;4117;53.622;9.958;2023-12-20T11:51:50;4.50;1.00
8152;DHT22;4117;53.622;9.958;2023-12-20T11:54:17;4.70;1.00
8152;DHT22;4117;53.622;9.958;2023-12-20T11:56:46;4.70;1.00
8152;DHT22;4117;53.622;9.958;2023-12-20T11:59:14;4.80;1.00
8152;DHT22;4117;53.622;9.958;2023-12-20T12:01:48;4.80;1.00
8152;DHT22;4117;53.622;9.958;2023-12-20T12:04:15;4.80;1.00
8152;DHT22;4117;53.622;9.958;2023-12-20T12:06:43;4.90;1.00
8152;DHT22;4117;53.622;9.958;2023-12-20T12:09:10;4.90;2.50
8152;DHT22;4117;53.622;9.958;2023-12-20T12:11:37;4.90;2.70
8152;DHT22;4117;53.622;9.958;2023-12-20T12:14:07;5.00;2.90
8152;DHT22;4117;53.622;9.958;2023-12-20T12:16:34;5.00;2.90
8152;DHT22;4117;53.622;9.958;2023-12-20T12:19:01;5.00;2.50
8152;DHT22;4117;53.622;9.958;2023-12-20T12:21:28;5.10;3.20
8152;DHT22;4117;53.622;9.958;2023-12-20T12:24:07;5.10;2.90
8152;DHT22;4117;53.622;9.958;2023-12-20T12:26:34;5.20;3.00
8152;DHT22;4117;53.622;9.958;2023-12-20T12:29:01;5.20;4.50
8152;DHT22;4117;53.622;9.958;2023-12-20T12:31:30;5.30;3.80
8152;DHT22;4117;53.622;9.958;2023-12-20T12:33:57;5.30;6.30
8152;DHT22;4117;53.622;9.958;2023-12-20T12:36:24;5.40;7.90
8152;DHT22;4117;53.622;9.958;2023-12-20T12:38:51;5.40;8.30
8152;DHT22;4117;53.622;9.958;2023-12-20T12:41:18;5.50;3.20
8152;DHT22;4117;53.622;9.958;2023-12-20T12:43:45;5.60;1.60
8152;DHT22;4117;53.622;9.958;2023-12-20T12:46:12;5.60;1.00
8152;DHT22;4117;53.622;9.958;2023-12-20T12:48:40;5.50;1.00
8152;DHT22;4117;53.622;9.958;2023-12-20T12:51:07;5.50;1.00
8152;DHT22;4117;53.622;9.958;2023-12-20T12:53:38;5.50;1.00
8152;DHT22;4117;53.622;9.958;2023-12-20T12:56:05;5.50;1.00
8152;DHT22;4117;53.622;9.958;2023-12-20T12:58:32;5.50;1.00
8152;DHT22;4117;53.622;9.958;2023-12-20T13:00:59;5.40;1.00
8152;DHT22;4117;53.622;9.958;2023-12-20T13:03:26;5.50;1.00
8152;DHT22;4117;53.622;9.958;2023-12-20T13:05:54;5.50;1.00
8152;DHT22;4117;53.622;9.958;2023-12-20T13:08:21;5.40;1.00
8152;DHT22;4117;53.622;9.958;2023-12-20T13:10:49;5.40;1.00
8152;DHT22;4117;53.622;9.958;2023-12-20T13:13:16;5.50;1.00
8152;DHT22;4117;53.622;9.958;2023-12-20T13:15:43;5.50;1.00
8152;DHT22;4117;53.622;9.958;2023-12-20T13:18:16;5.50;1.00
8152;DHT22;4117;53.622;9.958;2023-12-20T13:20:43;5.50;1.00
8152;DHT22;4117;53.622;9.958;2023-12-20T13:23:12;5.50;1.00
8152;DHT22;4117;53.622;9.958;2023-12-20T13:25:39;5.50;1.00
8152;DHT22;4117;53.622;9.958;2023-12-20T13:28:06;5.50;1.00
8152;DHT22;4117;53.622;9.958;2023-12-20T13:30:33;5.50;1.00
8152;DHT22;4117;53.622;9.958;2023-12-20T13:33:01;5.50;1.00
8152;DHT22;4117;53.622;9.958;2023-12-20T13:35:28;5.50;1.00
8152;DHT22;4117;53.622;9.958;2023-12-20T13:37:55;5.50;1.00
8152;DHT22;4117;53.622;9.958;2023-12-20T13:40:24;5.50;1.00
8152;DHT22;4117;53.622;9.958;2023-12-20T13:42:51;5.50;1.00
8152;DHT22;4117;53.622;9.958;2023-12-20T13:45:18;5.50;1.00
8152;DHT22;4117;53.622;9.958;2023-12-20T13:47:45;5.50;1.00
8152;DHT22;4117;53.622;9.958;2023-12-20T13:50:12;5.50;1.00
8152;DHT22;4117;53.622;9.958;2023-12-20T13:52:39;5.50;1.00
8152;DHT22;4117;53.622;9.958;2023-12-20T13:55:06;5.50;1.00
8152;DHT22;4117;53.622;9.958;2023-12-20T13:57:35;5.40;1.00
8152;DHT22;4117;53.622;9.958;2023-12-20T14:00:06;5.40;1.00
8152;DHT22;4117;53.622;9.958;2023-12-20T14:02:40;5.40;1.00
8152;DHT22;4117;53.622;9.958;2023-12-20T14:05:07;5.40;1.00
8152;DHT22;4117;53.622;9.958;2023-12-20T14:07:34;5.40;1.00
8152;DHT22;4117;53.622;9.958;2023-12-20T14:10:01;5.40;1.00
8152;DHT22;4117;53.622;9.958;2023-12-20T14:12:29;5.40;1.00
8152;DHT22;4117;53.622;9.958;2023-12-20T14:14:57;5.40;1.00
8152;DHT22;4117;53.622;9.958;2023-12-20T14:17:24;5.40;1.00
8152;DHT22;4117;53.622;9.958;2023-12-20T14:19:51;5.40;1.00
8152;DHT22;4117;53.622;9.958;2023-12-20T14:22:20;5.40;1.00
8152;DHT22;4117;53.622;9.958;2023-12-20T14:24:47;5.40;1.00
8152;DHT22;4117;53.622;9.958;2023-12-20T14:27:14;5.40;1.00
8152;DHT22;4117;53.622;9.958;2023-12-20T14:29:41;5.40;1.00
8152;DHT22;4117;53.622;9.958;2023-12-20T14:32:09;5.40;1.00
8152;DHT22;4117;53.622;9.958;2023-12-20T14:34:36;5.40;1.00
8152;DHT22;4117;53.622;9.958;2023-12-20T14:37:03;5.30;1.00
8152;DHT22;4117;53.622;9.958;2023-12-20T14:39:31;5.30;1.00
8152;DHT22;4117;53.622;9.958;2023-12-20T14:41:58;5.30;1.00
8152;DHT22;4117;53.622;9.958;2023-12-20T14:44:25;5.30;1.00
8152;DHT22;4117;53.622;9.958;2023-12-20T14:46:52;5.30;1.00
8152;DHT22;4117;53.622;9.958;2023-12-20T14:49:20;5.30;1.00
8152;DHT22;4117;53.622;9.958;2023-12-20T14:51:47;5.30;1.00
8152;DHT22;4117;53.622;9.958;2023-12-20T14:54:14;5.30;1.00
8152;DHT22;4117;53.622;9.958;2023-12-20T14:56:41;5.30;1.00
8152;DHT22;4117;53.622;9.958;2023-12-20T14:59:08;5.30;1.00
8152;DHT22;4117;53.622;9.958;2023-12-20T15:01:35;5.30;1.00
8152;DHT22;4117;53.622;9.958;2023-12-20T15:04:02;5.30;1.00
8152;DHT22;4117;53.622;9.958;2023-12-20T15:06:31;5.30;1.00
8152;DHT22;4117;53.622;9.958;2023-12-20T15:08:59;5.30;1.00
8152;DHT22;4117;53.622;9.958;2023-12-20T15:11:27;5.30;1.00
8152;DHT22;4117;53.622;9.958;2023-12-20T15:13:54;5.30;1.00
8152;DHT22;4117;53.622;9.958;2023-12-20T15:16:21;5.30;1.00
8152;DHT22;4117;53.622;9.958;2023-12-20T15:18:48;5.30;1.00
8152;DHT22;4117;53.622;9.958;2023-12-20T15:21:16;5.30;1.00
8152;DHT22;4117;53.622;9.958;2023-12-20T15:23:45;5.30;1.00
8152;DHT22;4117;53.622;9.958;2023-12-20T15:26:18;5.20;1.00
8152;DHT22;4117;53.622;9.958;2023-12-20T15:28:45;5.20;1.00
8152;DHT22;4117;53.622;9.958;2023-12-20T15:31:12;5.20;1.00
8152;DHT22;4117;53.622;9.958;2023-12-20T15:33:40;5.20;1.00
8152;DHT22;4117;53.622;9.958;2023-12-20T15:36:07;5.20;1.00
8152;DHT22;4117;53.622;9.958;2023-12-20T15:38:33;5.20;1.00
8152;DHT22;4117;53.622;9.958;2023-12-20T15:41:02;5.10;1.00
8152;DHT22;4117;53.622;9.958;2023-12-20T15:43:29;5.10;1.00
8152;DHT22;4117;53.622;9.958;2023-12-20T15:45:56;5.10;1.00
8152;DHT22;4117;53.622;9.958;2023-12-20T15:48:23;5.10;1.00
8152;DHT22;4117;53.622;9.958;2023-12-20T15:50:55;5.10;1.00
8152;DHT22;4117;53.622;9.958;2023-12-20T15:53:22;5.10;1.00
8152;DHT22;4117;53.622;9.958;2023-12-20T15:55:49;5.10;1.00
8152;DHT22;4117;53.622;9.958;2023-12-20T15:58:18;5.10;1.00
8152;DHT22;4117;53.622;9.958;2023-12-20T16:00:45;5.10;1.00
8152;DHT22;4117;53.622;9.958;2023-12-20T16:03:12;5.10;1.00
8152;DHT22;4117;53.622;9.958;2023-12-20T16:05:39;5.10;1.00
8152;DHT22;4117;53.622;9.958;2023-12-20T16:08:06;5.00;1.00
8152;DHT22;4117;53.622;9.958;2023-12-20T16:10:33;5.10;1.00
8152;DHT22;4117;53.622;9.958;2023-12-20T16:13:00;5.00;1.00
8152;DHT22;4117;53.622;9.958;2023-12-20T16:15:28;5.00;1.00
8152;DHT22;4117;53.622;9.958;2023-12-20T16:17:55;5.00;1.00
8152;DHT22;4117;53.622;9.958;2023-12-20T16:20:22;5.00;1.00
8152;DHT22;4117;53.622;9.958;2023-12-20T16:22:49;5.00;1.00
8152;DHT22;4117;53.622;9.958;2023-12-20T16:25:16;5.00;1.00
8152;DHT22;4117;53.622;9.958;2023-12-20T16:27:43;5.00;1.00